ENZVENHD

Guest
Details From ENZV - Stavanger Lufthavn Sola
To ENHD - Haugesund Lufthavn Karmoy
Flight Number -
Tags generated
Created
Modified
Stats Distance 32 nm / 58 km
Max Altitude 100 ft / 30 m
Waypoints 3
Social Downloads 0
Likes 0
Share VATSIM

Download

Looking for another format? Having issues loading an existing format? Contact us
Advertisement - Login to hide

Notes

Basic altitude profile: - Ascent Rate: 1200ft/min - Ascent Speed: 80kts - Cruise Altitude: 2500ft - Cruise Speed: 120kts - Descent Rate: 1500ft/min - Descent Speed: 120kts Options: - Use NATs: yes - Use PACOTS: yes - Use low airways: yes - Use high airways: yes

Route

ENZV ZOL ENHD

ID Type Via Altitude Latitude Longitude Leg Dist Tot Dist Heading (true) Name
O ENZV APT - 0 ft / 0 m 58.88046˚ 5.63143˚ - 0 nm - Stavanger Lufthavn Sola
ZOL VOR - 100 ft / 30 m 58.87506˚ 5.64015˚ 0 nm 0 nm 140° / 140° SOLA VOR-DME
O ENHD APT - 0 ft / 0 m 59.34402˚ 5.21087˚ 31 nm 31 nm 335° / 335° Haugesund Lufthavn Karmoy

Altitude Profile

Advertisement - Login to hide

ENZV

Details ICAO ENZV (SVG)
Name Stavanger Lufthavn Sola
Region Norway
Timezone Europe/Oslo (UTC+1.0)
Stats Elevation 29 ft / 9 m (AMSL)
Location 58.880464° 5.631430°
Runways 2
Magnetic Variation 1.089° E

METAR

ENZV 120150Z 00000KT 9000 NSC M09/M10 Q0996

Decode

TAF

TAF ENZV 112300Z 1200/1224 VRB07KT 9999 SCT040 TEMPO 1206/1214 3000 -SHSN VV012 BECMG 1221/1224 16012KT

Decode

Departure Runways

ID Width Length Bearing (true) Bearing (mag) Surface Threshold Offset Overrun Length
11 148 ft / 45 m 8,018 ft / 2,444 m 106.32° 105.23° Asphalt 328 ft / 100 m 0 ft / 0 m
18 197 ft / 60 m 8,372 ft / 2,552 m 179.12° 178.03° Asphalt 197 ft / 60 m 0 ft / 0 m
29 148 ft / 45 m 8,018 ft / 2,444 m 286.36° 285.27° Asphalt 502 ft / 153 m 0 ft / 0 m
36 197 ft / 60 m 8,372 ft / 2,552 m 359.12° 358.03° Asphalt 0 ft / 0 m 0 ft / 0 m

ENHD

Details ICAO ENHD (HAU)
Name Haugesund Lufthavn Karmoy
Region Norway
Timezone Europe/Oslo (UTC+1.0)
Stats Elevation 76 ft / 23 m (AMSL)
Location 59.344015° 5.210871°
Runways 1
Magnetic Variation 0.887° E

METAR

ENHD 120220Z AUTO 10008KT 9999 SCT066/// M04/M06 Q0996

Decode

TAF

Not found

Destination Runways

ID Width Length Bearing (true) Bearing (mag) Surface Threshold Offset Overrun Length
14 148 ft / 45 m 6,940 ft / 2,115 m 134.35° 133.46° Asphalt 197 ft / 60 m 0 ft / 0 m
32 148 ft / 45 m 6,940 ft / 2,115 m 314.38° 313.49° Asphalt 197 ft / 60 m 0 ft / 0 m

Approach Navaids

Runway Type Ident Frequency Range Bearing (true) Bearing (mag) Slope Elevation
14 Localiser HD 109.10 MHz 18 nm / 33 km 134.37° 133.49° - 96 ft / 29 m (AMSL)
14 Glidescope HD 109.10 MHz 10 nm / 19 km 134.36° 133.48° 3.00° 76 ft / 23 m (AMSL)

Popular Alternatives